sensor_id;sensor_type;location;lat;lon;timestamp;temperature;humidity
20102;DHT22;10210;52.284;9.892;2023-11-21T00:01:36;11.20;99.90
20102;DHT22;10210;52.284;9.892;2023-11-21T00:04:02;11.20;99.90
20102;DHT22;10210;52.284;9.892;2023-11-21T00:06:28;11.20;99.90
20102;DHT22;10210;52.284;9.892;2023-11-21T00:08:56;11.20;99.90
20102;DHT22;10210;52.284;9.892;2023-11-21T00:11:21;11.20;99.90
20102;DHT22;10210;52.284;9.892;2023-11-21T00:13:47;11.20;99.90
20102;DHT22;10210;52.284;9.892;2023-11-21T00:16:14;11.20;99.90
20102;DHT22;10210;52.284;9.892;2023-11-21T00:18:39;11.20;99.90
20102;DHT22;10210;52.284;9.892;2023-11-21T00:21:05;11.20;99.90
20102;DHT22;10210;52.284;9.892;2023-11-21T00:23:31;11.20;99.90
20102;DHT22;10210;52.284;9.892;2023-11-21T00:25:57;11.20;99.90
20102;DHT22;10210;52.284;9.892;2023-11-21T00:28:23;11.10;99.90
20102;DHT22;10210;52.284;9.892;2023-11-21T00:30:48;11.20;99.90
20102;DHT22;10210;52.284;9.892;2023-11-21T00:33:14;11.10;99.90
20102;DHT22;10210;52.284;9.892;2023-11-21T00:35:40;11.20;99.90
20102;DHT22;10210;52.284;9.892;2023-11-21T00:38:05;11.20;99.90
20102;DHT22;10210;52.284;9.892;2023-11-21T00:40:31;11.10;99.90
20102;DHT22;10210;52.284;9.892;2023-11-21T00:42:56;11.10;99.90
20102;DHT22;10210;52.284;9.892;2023-11-21T00:45:22;11.10;99.90
20102;DHT22;10210;52.284;9.892;2023-11-21T00:47:48;11.10;99.90
20102;DHT22;10210;52.284;9.892;2023-11-21T00:50:13;11.10;99.90
20102;DHT22;10210;52.284;9.892;2023-11-21T00:52:39;11.10;99.90
20102;DHT22;10210;52.284;9.892;2023-11-21T00:55:06;11.10;99.90
20102;DHT22;10210;52.284;9.892;2023-11-21T00:57:33;11.10;99.90
20102;DHT22;10210;52.284;9.892;2023-11-21T01:00:00;11.10;99.90
20102;DHT22;10210;52.284;9.892;2023-11-21T01:02:26;11.10;99.90
20102;DHT22;10210;52.284;9.892;2023-11-21T01:04:51;11.10;99.90
20102;DHT22;10210;52.284;9.892;2023-11-21T01:07:17;11.10;99.90
20102;DHT22;10210;52.284;9.892;2023-11-21T01:09:45;11.10;99.90
20102;DHT22;10210;52.284;9.892;2023-11-21T01:12:11;11.10;99.90
20102;DHT22;10210;52.284;9.892;2023-11-21T01:14:37;11.10;99.90
20102;DHT22;10210;52.284;9.892;2023-11-21T01:17:03;11.10;99.90
20102;DHT22;10210;52.284;9.892;2023-11-21T01:19:30;11.20;99.90
20102;DHT22;10210;52.284;9.892;2023-11-21T01:21:55;11.10;99.90
20102;DHT22;10210;52.284;9.892;2023-11-21T01:24:23;11.20;99.90
20102;DHT22;10210;52.284;9.892;2023-11-21T01:26:49;11.10;99.90
20102;DHT22;10210;52.284;9.892;2023-11-21T01:29:14;11.20;99.90
20102;DHT22;10210;52.284;9.892;2023-11-21T01:31:40;11.20;99.90
20102;DHT22;10210;52.284;9.892;2023-11-21T01:34:06;11.20;99.90
20102;DHT22;10210;52.284;9.892;2023-11-21T01:36:32;11.20;99.90
20102;DHT22;10210;52.284;9.892;2023-11-21T01:38:59;11.20;99.90
20102;DHT22;10210;52.284;9.892;2023-11-21T01:41:28;11.20;99.90
20102;DHT22;10210;52.284;9.892;2023-11-21T01:43:54;11.20;99.90
20102;DHT22;10210;52.284;9.892;2023-11-21T01:46:21;11.20;99.90
20102;DHT22;10210;52.284;9.892;2023-11-21T01:48:49;11.20;99.90
20102;DHT22;10210;52.284;9.892;2023-11-21T01:51:15;11.20;99.90
20102;DHT22;10210;52.284;9.892;2023-11-21T01:53:42;11.20;99.90
20102;DHT22;10210;52.284;9.892;2023-11-21T01:56:08;11.20;99.90
20102;DHT22;10210;52.284;9.892;2023-11-21T01:58:35;11.20;99.90
20102;DHT22;10210;52.284;9.892;2023-11-21T02:01:01;11.20;99.90
20102;DHT22;10210;52.284;9.892;2023-11-21T02:03:27;11.20;99.90
20102;DHT22;10210;52.284;9.892;2023-11-21T02:05:53;11.20;99.90
20102;DHT22;10210;52.284;9.892;2023-11-21T02:08:19;11.20;99.90
20102;DHT22;10210;52.284;9.892;2023-11-21T02:10:45;11.20;99.90
20102;DHT22;10210;52.284;9.892;2023-11-21T02:13:13;11.20;99.90
20102;DHT22;10210;52.284;9.892;2023-11-21T02:15:38;11.20;99.90
20102;DHT22;10210;52.284;9.892;2023-11-21T02:18:04;11.20;99.90
20102;DHT22;10210;52.284;9.892;2023-11-21T02:20:31;11.20;99.90
20102;DHT22;10210;52.284;9.892;2023-11-21T02:23:00;11.20;99.90
20102;DHT22;10210;52.284;9.892;2023-11-21T02:25:31;11.20;99.90
20102;DHT22;10210;52.284;9.892;2023-11-21T02:28:02;11.20;99.90
20102;DHT22;10210;52.284;9.892;2023-11-21T02:30:29;11.20;99.90
20102;DHT22;10210;52.284;9.892;2023-11-21T02:32:58;11.10;99.90
20102;DHT22;10210;52.284;9.892;2023-11-21T02:35:24;11.20;99.90
20102;DHT22;10210;52.284;9.892;2023-11-21T02:37:53;11.10;99.90
20102;DHT22;10210;52.284;9.892;2023-11-21T02:40:19;11.10;99.90
20102;DHT22;10210;52.284;9.892;2023-11-21T02:42:49;11.10;99.90
20102;DHT22;10210;52.284;9.892;2023-11-21T02:45:16;11.20;99.90
20102;DHT22;10210;52.284;9.892;2023-11-21T02:47:44;11.10;99.90
20102;DHT22;10210;52.284;9.892;2023-11-21T02:50:10;11.10;99.90
20102;DHT22;10210;52.284;9.892;2023-11-21T02:52:36;11.10;99.90
20102;DHT22;10210;52.284;9.892;2023-11-21T02:55:03;11.20;99.90
20102;DHT22;10210;52.284;9.892;2023-11-21T02:57:29;11.10;99.90
20102;DHT22;10210;52.284;9.892;2023-11-21T02:59:55;11.10;99.90
20102;DHT22;10210;52.284;9.892;2023-11-21T03:02:21;11.10;99.90
20102;DHT22;10210;52.284;9.892;2023-11-21T03:04:47;11.20;99.90
20102;DHT22;10210;52.284;9.892;2023-11-21T03:07:14;11.20;99.90
20102;DHT22;10210;52.284;9.892;2023-11-21T03:09:41;11.10;99.90
20102;DHT22;10210;52.284;9.892;2023-11-21T03:12:07;11.20;99.90
20102;DHT22;10210;52.284;9.892;2023-11-21T03:14:34;11.20;99.90
20102;DHT22;10210;52.284;9.892;2023-11-21T03:17:00;11.10;99.90
20102;DHT22;10210;52.284;9.892;2023-11-21T03:19:25;11.20;99.90
20102;DHT22;10210;52.284;9.892;2023-11-21T03:21:51;11.10;99.90
20102;DHT22;10210;52.284;9.892;2023-11-21T03:24:18;11.10;99.90
20102;DHT22;10210;52.284;9.892;2023-11-21T03:26:45;11.10;99.90
20102;DHT22;10210;52.284;9.892;2023-11-21T03:29:12;11.10;99.90
20102;DHT22;10210;52.284;9.892;2023-11-21T03:31:38;11.10;99.90
20102;DHT22;10210;52.284;9.892;2023-11-21T03:34:04;11.10;99.90
20102;DHT22;10210;52.284;9.892;2023-11-21T03:36:30;11.10;99.90
20102;DHT22;10210;52.284;9.892;2023-11-21T03:38:56;11.10;99.90
20102;DHT22;10210;52.284;9.892;2023-11-21T03:41:21;11.20;99.90
20102;DHT22;10210;52.284;9.892;2023-11-21T03:43:47;11.20;99.90
20102;DHT22;10210;52.284;9.892;2023-11-21T03:46:12;11.10;99.90
20102;DHT22;10210;52.284;9.892;2023-11-21T03:48:39;11.20;99.90
20102;DHT22;10210;52.284;9.892;2023-11-21T03:51:05;11.20;99.90
20102;DHT22;10210;52.284;9.892;2023-11-21T03:53:31;11.20;99.90
20102;DHT22;10210;52.284;9.892;2023-11-21T03:55:57;11.20;99.90
20102;DHT22;10210;52.284;9.892;2023-11-21T03:58:23;11.20;99.90
20102;DHT22;10210;52.284;9.892;2023-11-21T04:00:49;11.20;99.90
20102;DHT22;10210;52.284;9.892;2023-11-21T04:03:14;11.20;99.90
20102;DHT22;10210;52.284;9.892;2023-11-21T04:05:40;11.20;99.90
20102;DHT22;10210;52.284;9.892;2023-11-21T04:08:06;11.20;99.90
20102;DHT22;10210;52.284;9.892;2023-11-21T04:10:32;11.20;99.90
20102;DHT22;10210;52.284;9.892;2023-11-21T04:12:58;11.20;99.90
20102;DHT22;10210;52.284;9.892;2023-11-21T04:15:25;11.20;99.90
20102;DHT22;10210;52.284;9.892;2023-11-21T04:17:51;11.20;99.90
20102;DHT22;10210;52.284;9.892;2023-11-21T04:20:17;11.30;99.90
20102;DHT22;10210;52.284;9.892;2023-11-21T04:22:43;11.20;99.90
20102;DHT22;10210;52.284;9.892;2023-11-21T04:25:10;11.30;99.90
20102;DHT22;10210;52.284;9.892;2023-11-21T04:27:39;11.30;99.90
20102;DHT22;10210;52.284;9.892;2023-11-21T04:30:05;11.30;99.90
20102;DHT22;10210;52.284;9.892;2023-11-21T04:32:32;11.30;99.90
20102;DHT22;10210;52.284;9.892;2023-11-21T04:34:58;11.30;99.90
20102;DHT22;10210;52.284;9.892;2023-11-21T04:37:24;11.30;99.90
20102;DHT22;10210;52.284;9.892;2023-11-21T04:39:49;11.30;99.90
20102;DHT22;10210;52.284;9.892;2023-11-21T04:42:15;11.30;99.90
20102;DHT22;10210;52.284;9.892;2023-11-21T04:44:41;11.30;99.90
20102;DHT22;10210;52.284;9.892;2023-11-21T04:47:07;11.30;99.90
20102;DHT22;10210;52.284;9.892;2023-11-21T04:49:33;11.30;99.90
20102;DHT22;10210;52.284;9.892;2023-11-21T04:51:59;11.30;99.90
20102;DHT22;10210;52.284;9.892;2023-11-21T04:54:27;11.30;99.90
20102;DHT22;10210;52.284;9.892;2023-11-21T04:56:53;11.30;99.90
20102;DHT22;10210;52.284;9.892;2023-11-21T04:59:18;11.30;99.90
20102;DHT22;10210;52.284;9.892;2023-11-21T05:01:44;11.30;99.90
20102;DHT22;10210;52.284;9.892;2023-11-21T05:04:09;11.30;99.90
20102;DHT22;10210;52.284;9.892;2023-11-21T05:06:35;11.30;99.90
20102;DHT22;10210;52.284;9.892;2023-11-21T05:09:01;11.30;99.90
20102;DHT22;10210;52.284;9.892;2023-11-21T05:11:28;11.20;99.90
20102;DHT22;10210;52.284;9.892;2023-11-21T05:13:54;11.20;99.90
20102;DHT22;10210;52.284;9.892;2023-11-21T05:16:25;11.20;99.90
20102;DHT22;10210;52.284;9.892;2023-11-21T05:18:53;11.20;99.90
20102;DHT22;10210;52.284;9.892;2023-11-21T05:21:18;11.20;99.90
20102;DHT22;10210;52.284;9.892;2023-11-21T05:23:46;11.20;99.90
20102;DHT22;10210;52.284;9.892;2023-11-21T05:26:12;11.20;99.90
20102;DHT22;10210;52.284;9.892;2023-11-21T05:28:37;11.20;99.90
20102;DHT22;10210;52.284;9.892;2023-11-21T05:31:03;11.20;99.90
20102;DHT22;10210;52.284;9.892;2023-11-21T05:33:29;11.20;99.90
20102;DHT22;10210;52.284;9.892;2023-11-21T05:35:54;11.20;99.90
20102;DHT22;10210;52.284;9.892;2023-11-21T05:38:20;11.20;99.90
20102;DHT22;10210;52.284;9.892;2023-11-21T05:40:47;11.20;99.90
20102;DHT22;10210;52.284;9.892;2023-11-21T05:43:13;11.20;99.90
20102;DHT22;10210;52.284;9.892;2023-11-21T05:45:38;11.20;99.90
20102;DHT22;10210;52.284;9.892;2023-11-21T05:48:04;11.20;99.90
20102;DHT22;10210;52.284;9.892;2023-11-21T05:50:31;11.20;99.90
20102;DHT22;10210;52.284;9.892;2023-11-21T05:52:58;11.20;99.90
20102;DHT22;10210;52.284;9.892;2023-11-21T05:55:25;11.20;99.90
20102;DHT22;10210;52.284;9.892;2023-11-21T05:57:51;11.20;99.90
20102;DHT22;10210;52.284;9.892;2023-11-21T06:00:17;11.20;99.90
20102;DHT22;10210;52.284;9.892;2023-11-21T06:02:47;11.20;99.90
20102;DHT22;10210;52.284;9.892;2023-11-21T06:05:17;11.20;99.90
20102;DHT22;10210;52.284;9.892;2023-11-21T06:07:43;11.20;99.90
20102;DHT22;10210;52.284;9.892;2023-11-21T06:10:11;11.20;99.90
20102;DHT22;10210;52.284;9.892;2023-11-21T06:12:40;11.10;99.90
20102;DHT22;10210;52.284;9.892;2023-11-21T06:15:09;11.10;99.90
20102;DHT22;10210;52.284;9.892;2023-11-21T06:17:39;11.10;99.90
20102;DHT22;10210;52.284;9.892;2023-11-21T06:20:09;11.20;99.90
20102;DHT22;10210;52.284;9.892;2023-11-21T06:22:41;11.20;99.90
20102;DHT22;10210;52.284;9.892;2023-11-21T06:25:08;11.20;99.90
20102;DHT22;10210;52.284;9.892;2023-11-21T06:27:39;11.20;99.90
20102;DHT22;10210;52.284;9.892;2023-11-21T06:30:06;11.20;99.90
20102;DHT22;10210;52.284;9.892;2023-11-21T06:32:35;11.20;99.90
20102;DHT22;10210;52.284;9.892;2023-11-21T06:35:02;11.20;99.90
20102;DHT22;10210;52.284;9.892;2023-11-21T06:37:30;11.20;99.90
20102;DHT22;10210;52.284;9.892;2023-11-21T06:39:56;11.20;99.90
20102;DHT22;10210;52.284;9.892;2023-11-21T06:42:27;11.20;99.90
20102;DHT22;10210;52.284;9.892;2023-11-21T06:44:54;11.20;99.90
20102;DHT22;10210;52.284;9.892;2023-11-21T06:47:23;11.20;99.90
20102;DHT22;10210;52.284;9.892;2023-11-21T06:49:53;11.20;99.90
20102;DHT22;10210;52.284;9.892;2023-11-21T06:52:19;11.30;99.90
20102;DHT22;10210;52.284;9.892;2023-11-21T06:54:45;11.30;99.90
20102;DHT22;10210;52.284;9.892;2023-11-21T06:57:11;11.30;99.90
20102;DHT22;10210;52.284;9.892;2023-11-21T06:59:37;11.30;99.90
20102;DHT22;10210;52.284;9.892;2023-11-21T07:02:03;11.30;99.90
20102;DHT22;10210;52.284;9.892;2023-11-21T07:04:32;11.40;99.90
20102;DHT22;10210;52.284;9.892;2023-11-21T07:06:58;11.30;99.90
20102;DHT22;10210;52.284;9.892;2023-11-21T07:09:24;11.30;99.90
20102;DHT22;10210;52.284;9.892;2023-11-21T07:11:51;11.30;99.90
20102;DHT22;10210;52.284;9.892;2023-11-21T07:14:17;11.20;99.90
20102;DHT22;10210;52.284;9.892;2023-11-21T07:16:45;11.20;99.90
20102;DHT22;10210;52.284;9.892;2023-11-21T07:19:12;11.10;99.90
20102;DHT22;10210;52.284;9.892;2023-11-21T07:21:39;11.10;99.90
20102;DHT22;10210;52.284;9.892;2023-11-21T07:24:06;11.00;99.90
20102;DHT22;10210;52.284;9.892;2023-11-21T07:26:34;11.00;99.90
20102;DHT22;10210;52.284;9.892;2023-11-21T07:29:01;11.00;99.90
20102;DHT22;10210;52.284;9.892;2023-11-21T07:31:31;11.00;99.90
20102;DHT22;10210;52.284;9.892;2023-11-21T07:33:59;10.90;99.90
20102;DHT22;10210;52.284;9.892;2023-11-21T07:36:26;10.90;99.90
20102;DHT22;10210;52.284;9.892;2023-11-21T07:38:52;10.90;99.90
20102;DHT22;10210;52.284;9.892;2023-11-21T07:41:19;10.80;99.90
20102;DHT22;10210;52.284;9.892;2023-11-21T07:43:46;10.80;99.90
20102;DHT22;10210;52.284;9.892;2023-11-21T07:46:13;10.80;99.90
20102;DHT22;10210;52.284;9.892;2023-11-21T07:48:40;10.70;99.90
20102;DHT22;10210;52.284;9.892;2023-11-21T07:51:08;10.70;99.90
20102;DHT22;10210;52.284;9.892;2023-11-21T07:53:34;10.70;99.90
20102;DHT22;10210;52.284;9.892;2023-11-21T07:56:05;10.60;99.90
20102;DHT22;10210;52.284;9.892;2023-11-21T07:58:33;10.60;99.90
20102;DHT22;10210;52.284;9.892;2023-11-21T08:01:00;10.60;99.90
20102;DHT22;10210;52.284;9.892;2023-11-21T08:03:26;10.60;99.90
20102;DHT22;10210;52.284;9.892;2023-11-21T08:05:52;10.60;99.90
20102;DHT22;10210;52.284;9.892;2023-11-21T08:08:18;10.50;99.90
20102;DHT22;10210;52.284;9.892;2023-11-21T08:10:44;10.50;99.90
20102;DHT22;10210;52.284;9.892;2023-11-21T08:13:14;10.50;99.90
20102;DHT22;10210;52.284;9.892;2023-11-21T08:15:42;10.50;99.90
20102;DHT22;10210;52.284;9.892;2023-11-21T08:18:11;10.40;99.90
20102;DHT22;10210;52.284;9.892;2023-11-21T08:20:38;10.40;99.90
20102;DHT22;10210;52.284;9.892;2023-11-21T08:23:05;10.40;99.90
20102;DHT22;10210;52.284;9.892;2023-11-21T08:25:32;10.40;99.90
20102;DHT22;10210;52.284;9.892;2023-11-21T08:27:58;10.40;99.90
20102;DHT22;10210;52.284;9.892;2023-11-21T08:30:24;10.40;99.90
20102;DHT22;10210;52.284;9.892;2023-11-21T08:32:50;10.40;99.90
20102;DHT22;10210;52.284;9.892;2023-11-21T08:35:18;10.40;99.90
20102;DHT22;10210;52.284;9.892;2023-11-21T08:37:45;10.40;99.90
20102;DHT22;10210;52.284;9.892;2023-11-21T08:40:11;10.30;99.90
20102;DHT22;10210;52.284;9.892;2023-11-21T08:42:41;10.30;99.90
20102;DHT22;10210;52.284;9.892;2023-11-21T08:45:08;10.30;99.90
20102;DHT22;10210;52.284;9.892;2023-11-21T08:47:35;10.30;99.90
20102;DHT22;10210;52.284;9.892;2023-11-21T08:50:10;10.30;99.90
20102;DHT22;10210;52.284;9.892;2023-11-21T08:52:40;10.30;99.90
20102;DHT22;10210;52.284;9.892;2023-11-21T08:55:06;10.30;99.90
20102;DHT22;10210;52.284;9.892;2023-11-21T08:57:38;10.30;99.90
20102;DHT22;10210;52.284;9.892;2023-11-21T09:00:06;10.20;99.90
20102;DHT22;10210;52.284;9.892;2023-11-21T09:02:36;10.20;99.90
20102;DHT22;10210;52.284;9.892;2023-11-21T09:05:04;10.20;99.90
20102;DHT22;10210;52.284;9.892;2023-11-21T09:07:31;10.20;99.90
20102;DHT22;10210;52.284;9.892;2023-11-21T09:09:56;10.20;99.90
20102;DHT22;10210;52.284;9.892;2023-11-21T09:12:22;10.20;99.90
20102;DHT22;10210;52.284;9.892;2023-11-21T09:14:50;10.20;99.90
20102;DHT22;10210;52.284;9.892;2023-11-21T09:17:16;10.20;99.90
20102;DHT22;10210;52.284;9.892;2023-11-21T09:19:42;10.20;99.90
20102;DHT22;10210;52.284;9.892;2023-11-21T09:22:15;10.20;99.90
20102;DHT22;10210;52.284;9.892;2023-11-21T09:24:41;10.20;99.90
20102;DHT22;10210;52.284;9.892;2023-11-21T09:27:08;10.20;99.90
20102;DHT22;10210;52.284;9.892;2023-11-21T09:29:35;10.20;99.90
20102;DHT22;10210;52.284;9.892;2023-11-21T09:32:01;10.30;99.90
20102;DHT22;10210;52.284;9.892;2023-11-21T09:34:28;10.30;99.90
20102;DHT22;10210;52.284;9.892;2023-11-21T09:36:54;10.30;99.90
20102;DHT22;10210;52.284;9.892;2023-11-21T09:39:19;10.30;99.90
20102;DHT22;10210;52.284;9.892;2023-11-21T09:41:54;10.40;99.90
20102;DHT22;10210;52.284;9.892;2023-11-21T09:44:48;10.40;99.90
20102;DHT22;10210;52.284;9.892;2023-11-21T09:47:21;10.50;99.90
20102;DHT22;10210;52.284;9.892;2023-11-21T09:49:48;10.50;99.90
20102;DHT22;10210;52.284;9.892;2023-11-21T09:52:27;10.50;99.90
20102;DHT22;10210;52.284;9.892;2023-11-21T09:54:55;10.50;99.90
20102;DHT22;10210;52.284;9.892;2023-11-21T09:57:24;10.60;99.90
20102;DHT22;10210;52.284;9.892;2023-11-21T09:59:54;10.60;99.90
20102;DHT22;10210;52.284;9.892;2023-11-21T10:02:28;10.60;99.90
20102;DHT22;10210;52.284;9.892;2023-11-21T10:04:56;10.60;99.90
20102;DHT22;10210;52.284;9.892;2023-11-21T10:07:22;10.60;99.90
20102;DHT22;10210;52.284;9.892;2023-11-21T10:09:51;10.60;99.90
20102;DHT22;10210;52.284;9.892;2023-11-21T10:12:18;10.60;99.90
20102;DHT22;10210;52.284;9.892;2023-11-21T10:14:48;10.60;99.90
20102;DHT22;10210;52.284;9.892;2023-11-21T10:17:15;10.70;99.90
20102;DHT22;10210;52.284;9.892;2023-11-21T10:19:46;10.70;99.90
20102;DHT22;10210;52.284;9.892;2023-11-21T10:22:15;10.70;99.90
20102;DHT22;10210;52.284;9.892;2023-11-21T10:24:42;10.60;99.90
20102;DHT22;10210;52.284;9.892;2023-11-21T10:27:09;10.60;99.90
20102;DHT22;10210;52.284;9.892;2023-11-21T10:29:35;10.70;99.90
20102;DHT22;10210;52.284;9.892;2023-11-21T10:32:03;10.70;99.90
20102;DHT22;10210;52.284;9.892;2023-11-21T10:34:29;10.60;99.90
20102;DHT22;10210;52.284;9.892;2023-11-21T10:36:55;10.70;99.90
20102;DHT22;10210;52.284;9.892;2023-11-21T10:39:23;10.70;99.90
20102;DHT22;10210;52.284;9.892;2023-11-21T10:41:54;10.70;99.90
20102;DHT22;10210;52.284;9.892;2023-11-21T10:44:21;10.70;99.90
20102;DHT22;10210;52.284;9.892;2023-11-21T10:46:52;10.70;99.90
20102;DHT22;10210;52.284;9.892;2023-11-21T10:49:25;10.70;99.90
20102;DHT22;10210;52.284;9.892;2023-11-21T10:51:55;10.70;99.90
20102;DHT22;10210;52.284;9.892;2023-11-21T10:54:23;10.70;99.90
20102;DHT22;10210;52.284;9.892;2023-11-21T10:56:57;10.70;99.90
20102;DHT22;10210;52.284;9.892;2023-11-21T10:59:29;10.70;99.90
20102;DHT22;10210;52.284;9.892;2023-11-21T11:01:57;10.70;99.90
20102;DHT22;10210;52.284;9.892;2023-11-21T11:04:27;10.70;99.90
20102;DHT22;10210;52.284;9.892;2023-11-21T11:07:02;10.70;99.90
20102;DHT22;10210;52.284;9.892;2023-11-21T11:09:31;10.70;99.90
20102;DHT22;10210;52.284;9.892;2023-11-21T11:12:01;10.70;99.90
20102;DHT22;10210;52.284;9.892;2023-11-21T11:14:30;10.70;99.90
20102;DHT22;10210;52.284;9.892;2023-11-21T11:16:58;10.70;99.90
20102;DHT22;10210;52.284;9.892;2023-11-21T11:19:25;10.70;99.90
20102;DHT22;10210;52.284;9.892;2023-11-21T11:22:08;10.70;99.90
20102;DHT22;10210;52.284;9.892;2023-11-21T11:24:59;10.70;99.90
20102;DHT22;10210;52.284;9.892;2023-11-21T11:33:56;10.70;99.90
20102;DHT22;10210;52.284;9.892;2023-11-21T11:36:26;10.70;99.90
20102;DHT22;10210;52.284;9.892;2023-11-21T11:38:56;10.70;99.90
20102;DHT22;10210;52.284;9.892;2023-11-21T11:41:27;10.70;99.90
20102;DHT22;10210;52.284;9.892;2023-11-21T11:43:55;10.70;99.90
20102;DHT22;10210;52.284;9.892;2023-11-21T11:46:21;10.70;99.90
20102;DHT22;10210;52.284;9.892;2023-11-21T11:49:07;10.70;99.90
20102;DHT22;10210;52.284;9.892;2023-11-21T11:51:33;10.70;99.90
20102;DHT22;10210;52.284;9.892;2023-11-21T11:54:02;10.70;99.90
20102;DHT22;10210;52.284;9.892;2023-11-21T11:56:30;10.70;99.90
20102;DHT22;10210;52.284;9.892;2023-11-21T11:59:02;10.70;99.90
20102;DHT22;10210;52.284;9.892;2023-11-21T12:01:29;10.70;99.90
20102;DHT22;10210;52.284;9.892;2023-11-21T12:06:45;10.80;99.90
20102;DHT22;10210;52.284;9.892;2023-11-21T12:09:24;10.80;99.90
20102;DHT22;10210;52.284;9.892;2023-11-21T12:11:52;10.80;99.90
20102;DHT22;10210;52.284;9.892;2023-11-21T12:14:20;10.80;99.90
20102;DHT22;10210;52.284;9.892;2023-11-21T12:16:46;10.80;99.90
20102;DHT22;10210;52.284;9.892;2023-11-21T12:19:13;10.90;99.90
20102;DHT22;10210;52.284;9.892;2023-11-21T12:21:39;10.90;99.90
20102;DHT22;10210;52.284;9.892;2023-11-21T12:24:08;10.80;99.90
20102;DHT22;10210;52.284;9.892;2023-11-21T12:26:35;10.90;99.90
20102;DHT22;10210;52.284;9.892;2023-11-21T12:29:02;10.80;99.90
20102;DHT22;10210;52.284;9.892;2023-11-21T12:31:30;10.80;99.90
20102;DHT22;10210;52.284;9.892;2023-11-21T12:33:56;10.80;99.90
20102;DHT22;10210;52.284;9.892;2023-11-21T12:36:23;10.90;99.90
20102;DHT22;10210;52.284;9.892;2023-11-21T12:38:50;10.90;99.90
20102;DHT22;10210;52.284;9.892;2023-11-21T12:41:16;10.90;99.90
20102;DHT22;10210;52.284;9.892;2023-11-21T12:43:46;10.90;99.90
20102;DHT22;10210;52.284;9.892;2023-11-21T12:46:13;10.90;99.90
20102;DHT22;10210;52.284;9.892;2023-11-21T12:48:44;10.90;99.90
20102;DHT22;10210;52.284;9.892;2023-11-21T12:51:13;10.90;99.90
20102;DHT22;10210;52.284;9.892;2023-11-21T12:53:42;10.90;99.90
20102;DHT22;10210;52.284;9.892;2023-11-21T12:56:11;10.90;99.90
20102;DHT22;10210;52.284;9.892;2023-11-21T12:58:38;10.90;99.90
20102;DHT22;10210;52.284;9.892;2023-11-21T13:01:06;10.90;99.90
20102;DHT22;10210;52.284;9.892;2023-11-21T13:03:40;10.90;99.90
20102;DHT22;10210;52.284;9.892;2023-11-21T13:06:07;11.00;99.90
20102;DHT22;10210;52.284;9.892;2023-11-21T13:08:33;11.00;99.90
20102;DHT22;10210;52.284;9.892;2023-11-21T13:10:59;11.00;99.90
20102;DHT22;10210;52.284;9.892;2023-11-21T13:13:28;11.00;99.90
20102;DHT22;10210;52.284;9.892;2023-11-21T13:16:02;11.00;99.90
20102;DHT22;10210;52.284;9.892;2023-11-21T13:18:31;11.00;99.90
20102;DHT22;10210;52.284;9.892;2023-11-21T13:20:59;11.00;99.90
20102;DHT22;10210;52.284;9.892;2023-11-21T13:23:27;11.00;99.90
20102;DHT22;10210;52.284;9.892;2023-11-21T13:25:55;11.00;99.90
20102;DHT22;10210;52.284;9.892;2023-11-21T13:28:21;11.00;99.90
20102;DHT22;10210;52.284;9.892;2023-11-21T13:30:49;11.00;99.90
20102;DHT22;10210;52.284;9.892;2023-11-21T13:33:18;11.00;99.90
20102;DHT22;10210;52.284;9.892;2023-11-21T13:35:47;11.00;99.90
20102;DHT22;10210;52.284;9.892;2023-11-21T13:38:15;11.00;99.90
20102;DHT22;10210;52.284;9.892;2023-11-21T13:40:47;11.00;99.90
20102;DHT22;10210;52.284;9.892;2023-11-21T13:43:20;11.00;99.90
20102;DHT22;10210;52.284;9.892;2023-11-21T13:45:48;11.00;99.90
20102;DHT22;10210;52.284;9.892;2023-11-21T13:48:26;11.00;99.90
20102;DHT22;10210;52.284;9.892;2023-11-21T13:51:06;11.00;99.90
20102;DHT22;10210;52.284;9.892;2023-11-21T13:53:46;10.90;99.90
20102;DHT22;10210;52.284;9.892;2023-11-21T13:56:15;10.90;99.90
20102;DHT22;10210;52.284;9.892;2023-11-21T13:58:53;10.90;99.90
20102;DHT22;10210;52.284;9.892;2023-11-21T14:01:20;10.90;99.90
20102;DHT22;10210;52.284;9.892;2023-11-21T14:04:03;10.80;99.90
20102;DHT22;10210;52.284;9.892;2023-11-21T14:06:43;10.80;99.90
20102;DHT22;10210;52.284;9.892;2023-11-21T14:09:17;10.80;99.90
20102;DHT22;10210;52.284;9.892;2023-11-21T14:11:55;10.80;99.90
20102;DHT22;10210;52.284;9.892;2023-11-21T14:14:26;10.70;99.90
20102;DHT22;10210;52.284;9.892;2023-11-21T14:16:56;10.70;99.90
20102;DHT22;10210;52.284;9.892;2023-11-21T14:19:22;10.70;99.90
20102;DHT22;10210;52.284;9.892;2023-11-21T14:21:52;10.60;99.90
20102;DHT22;10210;52.284;9.892;2023-11-21T14:24:18;10.60;99.90
20102;DHT22;10210;52.284;9.892;2023-11-21T14:26:46;10.60;99.90
20102;DHT22;10210;52.284;9.892;2023-11-21T14:29:16;10.60;99.90
20102;DHT22;10210;52.284;9.892;2023-11-21T14:31:45;10.50;99.90
20102;DHT22;10210;52.284;9.892;2023-11-21T14:34:12;10.50;99.90
20102;DHT22;10210;52.284;9.892;2023-11-21T14:36:39;10.50;99.90
20102;DHT22;10210;52.284;9.892;2023-11-21T14:39:06;10.40;99.90
20102;DHT22;10210;52.284;9.892;2023-11-21T14:41:35;10.40;99.90
20102;DHT22;10210;52.284;9.892;2023-11-21T14:44:02;10.40;99.90
20102;DHT22;10210;52.284;9.892;2023-11-21T14:46:29;10.40;99.90
20102;DHT22;10210;52.284;9.892;2023-11-21T14:48:56;10.40;99.90
20102;DHT22;10210;52.284;9.892;2023-11-21T14:51:28;10.40;99.90
20102;DHT22;10210;52.284;9.892;2023-11-21T14:53:58;10.40;99.90
20102;DHT22;10210;52.284;9.892;2023-11-21T14:56:35;10.40;99.90
20102;DHT22;10210;52.284;9.892;2023-11-21T14:59:03;10.40;99.90
20102;DHT22;10210;52.284;9.892;2023-11-21T15:01:38;10.30;99.90
20102;DHT22;10210;52.284;9.892;2023-11-21T15:04:21;10.30;99.90
20102;DHT22;10210;52.284;9.892;2023-11-21T15:07:07;10.30;99.90
20102;DHT22;10210;52.284;9.892;2023-11-21T15:09:33;10.30;99.90
20102;DHT22;10210;52.284;9.892;2023-11-21T15:12:00;10.30;99.90
20102;DHT22;10210;52.284;9.892;2023-11-21T15:14:47;10.20;99.90
20102;DHT22;10210;52.284;9.892;2023-11-21T15:17:17;10.20;99.90
20102;DHT22;10210;52.284;9.892;2023-11-21T15:19:53;10.20;99.90
20102;DHT22;10210;52.284;9.892;2023-11-21T15:22:20;10.20;99.90
20102;DHT22;10210;52.284;9.892;2023-11-21T15:24:46;10.10;99.90
20102;DHT22;10210;52.284;9.892;2023-11-21T15:27:13;10.20;99.90
20102;DHT22;10210;52.284;9.892;2023-11-21T15:29:41;10.10;99.90
20102;DHT22;10210;52.284;9.892;2023-11-21T15:32:08;10.10;99.90
20102;DHT22;10210;52.284;9.892;2023-11-21T15:34:35;10.10;99.90
20102;DHT22;10210;52.284;9.892;2023-11-21T15:37:04;10.10;99.90
20102;DHT22;10210;52.284;9.892;2023-11-21T15:39:33;10.10;99.90
20102;DHT22;10210;52.284;9.892;2023-11-21T15:41:59;10.10;99.90
20102;DHT22;10210;52.284;9.892;2023-11-21T15:44:25;10.10;99.90